sensor_id;sensor_type;location;lat;lon;timestamp;temperature;humidity
25937;DHT22;13733;51.178;4.450;2023-11-19T00:00:43;13.90;99.90
25937;DHT22;13733;51.178;4.450;2023-11-19T00:03:08;14.00;99.90
25937;DHT22;13733;51.178;4.450;2023-11-19T00:05:36;14.00;99.90
25937;DHT22;13733;51.178;4.450;2023-11-19T00:08:02;14.10;99.90
25937;DHT22;13733;51.178;4.450;2023-11-19T00:10:28;14.10;99.90
25937;DHT22;13733;51.178;4.450;2023-11-19T00:12:53;13.90;99.90
25937;DHT22;13733;51.178;4.450;2023-11-19T00:15:19;13.90;99.90
25937;DHT22;13733;51.178;4.450;2023-11-19T00:17:46;13.90;99.90
25937;DHT22;13733;51.178;4.450;2023-11-19T00:20:19;14.00;99.90
25937;DHT22;13733;51.178;4.450;2023-11-19T00:22:48;14.00;99.90
25937;DHT22;13733;51.178;4.450;2023-11-19T00:25:20;14.10;99.90
25937;DHT22;13733;51.178;4.450;2023-11-19T00:27:47;14.10;99.90
25937;DHT22;13733;51.178;4.450;2023-11-19T00:30:13;14.10;99.90
25937;DHT22;13733;51.178;4.450;2023-11-19T00:32:40;14.20;99.90
25937;DHT22;13733;51.178;4.450;2023-11-19T00:35:07;14.10;99.90
25937;DHT22;13733;51.178;4.450;2023-11-19T00:37:41;14.20;99.90
25937;DHT22;13733;51.178;4.450;2023-11-19T00:40:08;14.20;99.90
25937;DHT22;13733;51.178;4.450;2023-11-19T00:42:36;14.30;99.90
25937;DHT22;13733;51.178;4.450;2023-11-19T00:45:02;14.10;99.90
25937;DHT22;13733;51.178;4.450;2023-11-19T00:47:28;14.00;99.90
25937;DHT22;13733;51.178;4.450;2023-11-19T00:49:53;14.10;99.90
25937;DHT22;13733;51.178;4.450;2023-11-19T00:52:19;14.00;99.90
25937;DHT22;13733;51.178;4.450;2023-11-19T00:54:45;14.00;99.90
25937;DHT22;13733;51.178;4.450;2023-11-19T00:57:12;14.10;99.90
25937;DHT22;13733;51.178;4.450;2023-11-19T00:59:43;14.10;99.90
25937;DHT22;13733;51.178;4.450;2023-11-19T01:02:09;14.10;99.90
25937;DHT22;13733;51.178;4.450;2023-11-19T01:04:36;14.10;99.90
25937;DHT22;13733;51.178;4.450;2023-11-19T01:07:03;14.00;99.90
25937;DHT22;13733;51.178;4.450;2023-11-19T01:09:32;14.10;99.90
25937;DHT22;13733;51.178;4.450;2023-11-19T01:12:00;14.10;99.90
25937;DHT22;13733;51.178;4.450;2023-11-19T01:14:27;14.20;99.90
25937;DHT22;13733;51.178;4.450;2023-11-19T01:16:53;14.10;99.90
25937;DHT22;13733;51.178;4.450;2023-11-19T01:19:23;14.10;99.90
25937;DHT22;13733;51.178;4.450;2023-11-19T01:21:50;14.00;99.90
25937;DHT22;13733;51.178;4.450;2023-11-19T01:24:17;14.00;99.90
25937;DHT22;13733;51.178;4.450;2023-11-19T01:26:43;14.00;99.90
25937;DHT22;13733;51.178;4.450;2023-11-19T01:29:16;14.00;99.90
25937;DHT22;13733;51.178;4.450;2023-11-19T01:31:43;14.20;99.90
25937;DHT22;13733;51.178;4.450;2023-11-19T01:34:09;14.20;99.90
25937;DHT22;13733;51.178;4.450;2023-11-19T01:36:35;14.10;99.90
25937;DHT22;13733;51.178;4.450;2023-11-19T01:39:01;14.20;99.90
25937;DHT22;13733;51.178;4.450;2023-11-19T01:41:35;14.10;99.90
25937;DHT22;13733;51.178;4.450;2023-11-19T01:44:02;14.10;99.90
25937;DHT22;13733;51.178;4.450;2023-11-19T01:46:29;14.10;99.90
25937;DHT22;13733;51.178;4.450;2023-11-19T01:48:55;14.10;99.90
25937;DHT22;13733;51.178;4.450;2023-11-19T01:51:21;14.00;99.90
25937;DHT22;13733;51.178;4.450;2023-11-19T01:53:48;14.10;99.90
25937;DHT22;13733;51.178;4.450;2023-11-19T01:56:15;14.10;99.90
25937;DHT22;13733;51.178;4.450;2023-11-19T01:58:43;14.00;99.90
25937;DHT22;13733;51.178;4.450;2023-11-19T02:01:09;14.00;99.90
25937;DHT22;13733;51.178;4.450;2023-11-19T02:03:37;14.10;99.90
25937;DHT22;13733;51.178;4.450;2023-11-19T02:06:04;14.10;99.90
25937;DHT22;13733;51.178;4.450;2023-11-19T02:08:30;14.10;99.90
25937;DHT22;13733;51.178;4.450;2023-11-19T02:10:57;14.10;99.90
25937;DHT22;13733;51.178;4.450;2023-11-19T02:13:26;14.20;99.90
25937;DHT22;13733;51.178;4.450;2023-11-19T02:15:52;14.10;99.90
25937;DHT22;13733;51.178;4.450;2023-11-19T02:18:25;14.20;99.90
25937;DHT22;13733;51.178;4.450;2023-11-19T02:20:54;14.10;99.90
25937;DHT22;13733;51.178;4.450;2023-11-19T02:23:21;14.00;99.90
25937;DHT22;13733;51.178;4.450;2023-11-19T02:28:19;14.00;99.90
25937;DHT22;13733;51.178;4.450;2023-11-19T02:30:45;14.00;99.90
25937;DHT22;13733;51.178;4.450;2023-11-19T02:33:10;13.80;99.90
25937;DHT22;13733;51.178;4.450;2023-11-19T02:35:36;13.80;99.90
25937;DHT22;13733;51.178;4.450;2023-11-19T02:38:02;13.90;99.90
25937;DHT22;13733;51.178;4.450;2023-11-19T02:40:32;13.90;99.90
25937;DHT22;13733;51.178;4.450;2023-11-19T02:42:58;13.90;99.90
25937;DHT22;13733;51.178;4.450;2023-11-19T02:45:24;13.80;99.90
25937;DHT22;13733;51.178;4.450;2023-11-19T02:47:51;13.70;99.90
25937;DHT22;13733;51.178;4.450;2023-11-19T02:50:18;13.60;99.90
25937;DHT22;13733;51.178;4.450;2023-11-19T02:52:52;13.60;99.90
25937;DHT22;13733;51.178;4.450;2023-11-19T02:55:18;13.60;99.90
25937;DHT22;13733;51.178;4.450;2023-11-19T02:57:45;13.50;99.90
25937;DHT22;13733;51.178;4.450;2023-11-19T03:00:23;13.50;99.90
25937;DHT22;13733;51.178;4.450;2023-11-19T03:02:51;13.40;99.90
25937;DHT22;13733;51.178;4.450;2023-11-19T03:05:26;13.40;99.90
25937;DHT22;13733;51.178;4.450;2023-11-19T03:07:54;13.40;99.90
25937;DHT22;13733;51.178;4.450;2023-11-19T03:10:20;13.30;99.90
25937;DHT22;13733;51.178;4.450;2023-11-19T03:12:46;13.30;99.90
25937;DHT22;13733;51.178;4.450;2023-11-19T03:15:11;13.40;99.90
25937;DHT22;13733;51.178;4.450;2023-11-19T03:17:41;13.40;99.90
25937;DHT22;13733;51.178;4.450;2023-11-19T03:20:10;13.40;99.90
25937;DHT22;13733;51.178;4.450;2023-11-19T03:22:39;13.30;99.90
25937;DHT22;13733;51.178;4.450;2023-11-19T03:25:07;13.40;99.90
25937;DHT22;13733;51.178;4.450;2023-11-19T03:27:37;13.60;99.90
25937;DHT22;13733;51.178;4.450;2023-11-19T03:30:08;13.60;99.90
25937;DHT22;13733;51.178;4.450;2023-11-19T03:32:35;13.50;99.90
25937;DHT22;13733;51.178;4.450;2023-11-19T03:35:04;13.60;99.90
25937;DHT22;13733;51.178;4.450;2023-11-19T03:37:33;13.50;99.90
25937;DHT22;13733;51.178;4.450;2023-11-19T03:39:59;13.50;99.90
25937;DHT22;13733;51.178;4.450;2023-11-19T03:42:28;13.50;99.90
25937;DHT22;13733;51.178;4.450;2023-11-19T03:44:56;13.60;99.90
25937;DHT22;13733;51.178;4.450;2023-11-19T03:47:22;13.70;99.90
25937;DHT22;13733;51.178;4.450;2023-11-19T03:49:51;13.50;99.90
25937;DHT22;13733;51.178;4.450;2023-11-19T03:52:18;13.30;99.90
25937;DHT22;13733;51.178;4.450;2023-11-19T03:54:44;13.40;99.90
25937;DHT22;13733;51.178;4.450;2023-11-19T03:57:12;13.40;99.90
25937;DHT22;13733;51.178;4.450;2023-11-19T03:59:38;13.50;99.90
25937;DHT22;13733;51.178;4.450;2023-11-19T04:02:04;13.60;99.90
25937;DHT22;13733;51.178;4.450;2023-11-19T04:04:30;13.50;99.90
25937;DHT22;13733;51.178;4.450;2023-11-19T04:06:56;13.50;99.90
25937;DHT22;13733;51.178;4.450;2023-11-19T04:09:22;13.50;99.90
25937;DHT22;13733;51.178;4.450;2023-11-19T04:11:48;13.60;99.90
25937;DHT22;13733;51.178;4.450;2023-11-19T04:14:14;13.60;99.90
25937;DHT22;13733;51.178;4.450;2023-11-19T04:16:40;13.60;99.90
25937;DHT22;13733;51.178;4.450;2023-11-19T04:19:06;13.60;99.90
25937;DHT22;13733;51.178;4.450;2023-11-19T04:21:33;13.40;99.90
25937;DHT22;13733;51.178;4.450;2023-11-19T04:23:58;13.30;99.90
25937;DHT22;13733;51.178;4.450;2023-11-19T04:26:24;13.10;99.90
25937;DHT22;13733;51.178;4.450;2023-11-19T04:28:50;13.10;99.90
25937;DHT22;13733;51.178;4.450;2023-11-19T04:31:19;13.00;99.90
25937;DHT22;13733;51.178;4.450;2023-11-19T04:33:45;12.90;99.90
25937;DHT22;13733;51.178;4.450;2023-11-19T04:36:11;12.90;99.90
25937;DHT22;13733;51.178;4.450;2023-11-19T04:38:37;12.80;99.90
25937;DHT22;13733;51.178;4.450;2023-11-19T04:41:05;12.90;99.90
25937;DHT22;13733;51.178;4.450;2023-11-19T04:43:31;13.00;99.90
25937;DHT22;13733;51.178;4.450;2023-11-19T04:45:57;12.90;99.90
25937;DHT22;13733;51.178;4.450;2023-11-19T04:48:24;12.90;99.90
25937;DHT22;13733;51.178;4.450;2023-11-19T04:50:50;12.90;99.90
25937;DHT22;13733;51.178;4.450;2023-11-19T04:53:18;12.90;99.90
25937;DHT22;13733;51.178;4.450;2023-11-19T04:55:44;12.90;99.90
25937;DHT22;13733;51.178;4.450;2023-11-19T04:58:10;12.90;99.90
25937;DHT22;13733;51.178;4.450;2023-11-19T05:00:36;12.90;99.90
25937;DHT22;13733;51.178;4.450;2023-11-19T05:03:01;12.80;99.90
25937;DHT22;13733;51.178;4.450;2023-11-19T05:05:28;12.70;99.90
25937;DHT22;13733;51.178;4.450;2023-11-19T05:07:53;12.80;99.90
25937;DHT22;13733;51.178;4.450;2023-11-19T05:10:20;12.80;99.90
25937;DHT22;13733;51.178;4.450;2023-11-19T05:12:46;12.70;99.90
25937;DHT22;13733;51.178;4.450;2023-11-19T05:15:12;12.60;99.90
25937;DHT22;13733;51.178;4.450;2023-11-19T05:17:38;12.60;99.90
25937;DHT22;13733;51.178;4.450;2023-11-19T05:20:05;12.70;99.90
25937;DHT22;13733;51.178;4.450;2023-11-19T05:22:39;12.50;99.90
25937;DHT22;13733;51.178;4.450;2023-11-19T05:25:06;12.60;99.90
25937;DHT22;13733;51.178;4.450;2023-11-19T05:27:32;12.60;99.90
25937;DHT22;13733;51.178;4.450;2023-11-19T05:29:57;12.70;99.90
25937;DHT22;13733;51.178;4.450;2023-11-19T05:32:23;12.70;99.20
25937;DHT22;13733;51.178;4.450;2023-11-19T05:34:49;12.60;99.00
25937;DHT22;13733;51.178;4.450;2023-11-19T05:37:14;12.50;98.90
25937;DHT22;13733;51.178;4.450;2023-11-19T05:39:40;12.40;99.70
25937;DHT22;13733;51.178;4.450;2023-11-19T05:42:06;12.40;99.20
25937;DHT22;13733;51.178;4.450;2023-11-19T05:44:32;12.50;98.10
25937;DHT22;13733;51.178;4.450;2023-11-19T05:46:57;12.50;97.90
25937;DHT22;13733;51.178;4.450;2023-11-19T05:49:23;12.30;99.50
25937;DHT22;13733;51.178;4.450;2023-11-19T05:51:49;12.30;99.90
25937;DHT22;13733;51.178;4.450;2023-11-19T05:54:15;12.40;99.90
25937;DHT22;13733;51.178;4.450;2023-11-19T05:56:41;12.40;99.20
25937;DHT22;13733;51.178;4.450;2023-11-19T05:59:07;12.50;98.60
25937;DHT22;13733;51.178;4.450;2023-11-19T06:01:40;12.60;97.90
25937;DHT22;13733;51.178;4.450;2023-11-19T06:04:07;12.50;99.00
25937;DHT22;13733;51.178;4.450;2023-11-19T06:06:33;12.40;99.50
25937;DHT22;13733;51.178;4.450;2023-11-19T06:08:58;12.30;99.90
25937;DHT22;13733;51.178;4.450;2023-11-19T06:11:24;12.40;99.90
25937;DHT22;13733;51.178;4.450;2023-11-19T06:13:52;12.50;99.90
25937;DHT22;13733;51.178;4.450;2023-11-19T06:16:18;12.60;99.90
25937;DHT22;13733;51.178;4.450;2023-11-19T06:18:44;12.60;99.90
25937;DHT22;13733;51.178;4.450;2023-11-19T06:21:12;12.60;98.70
25937;DHT22;13733;51.178;4.450;2023-11-19T06:23:38;12.70;96.80
25937;DHT22;13733;51.178;4.450;2023-11-19T06:26:04;12.60;98.00
25937;DHT22;13733;51.178;4.450;2023-11-19T06:28:31;12.50;98.60
25937;DHT22;13733;51.178;4.450;2023-11-19T06:30:57;12.50;98.70
25937;DHT22;13733;51.178;4.450;2023-11-19T06:33:24;12.40;98.80
25937;DHT22;13733;51.178;4.450;2023-11-19T06:35:50;12.30;99.10
25937;DHT22;13733;51.178;4.450;2023-11-19T06:38:16;12.30;98.60
25937;DHT22;13733;51.178;4.450;2023-11-19T06:40:42;12.40;97.50
25937;DHT22;13733;51.178;4.450;2023-11-19T06:43:10;12.30;98.30
25937;DHT22;13733;51.178;4.450;2023-11-19T06:45:35;12.20;99.10
25937;DHT22;13733;51.178;4.450;2023-11-19T06:48:03;12.30;98.50
25937;DHT22;13733;51.178;4.450;2023-11-19T06:50:32;12.20;99.80
25937;DHT22;13733;51.178;4.450;2023-11-19T06:52:58;12.20;99.40
25937;DHT22;13733;51.178;4.450;2023-11-19T06:55:26;12.10;99.90
25937;DHT22;13733;51.178;4.450;2023-11-19T06:57:52;12.10;99.90
25937;DHT22;13733;51.178;4.450;2023-11-19T07:00:19;12.10;99.90
25937;DHT22;13733;51.178;4.450;2023-11-19T07:02:47;12.30;99.90
25937;DHT22;13733;51.178;4.450;2023-11-19T07:05:12;12.20;99.90
25937;DHT22;13733;51.178;4.450;2023-11-19T07:07:38;12.10;99.90
25937;DHT22;13733;51.178;4.450;2023-11-19T07:10:06;12.00;99.90
25937;DHT22;13733;51.178;4.450;2023-11-19T07:12:34;12.10;99.90
25937;DHT22;13733;51.178;4.450;2023-11-19T07:15:03;12.10;99.90
25937;DHT22;13733;51.178;4.450;2023-11-19T07:17:31;12.10;99.90
25937;DHT22;13733;51.178;4.450;2023-11-19T07:19:57;12.20;99.90
25937;DHT22;13733;51.178;4.450;2023-11-19T07:22:26;12.20;99.90
25937;DHT22;13733;51.178;4.450;2023-11-19T07:24:52;12.10;99.90
25937;DHT22;13733;51.178;4.450;2023-11-19T07:27:19;12.00;99.90
25937;DHT22;13733;51.178;4.450;2023-11-19T07:29:44;12.10;99.90
25937;DHT22;13733;51.178;4.450;2023-11-19T07:32:11;12.20;99.90
25937;DHT22;13733;51.178;4.450;2023-11-19T07:34:39;12.10;99.90
25937;DHT22;13733;51.178;4.450;2023-11-19T07:37:05;12.00;99.90
25937;DHT22;13733;51.178;4.450;2023-11-19T07:39:31;12.00;99.90
25937;DHT22;13733;51.178;4.450;2023-11-19T07:41:57;12.10;99.90
25937;DHT22;13733;51.178;4.450;2023-11-19T07:44:23;12.10;99.90
25937;DHT22;13733;51.178;4.450;2023-11-19T07:46:49;12.30;99.90
25937;DHT22;13733;51.178;4.450;2023-11-19T07:49:14;12.40;99.90
25937;DHT22;13733;51.178;4.450;2023-11-19T07:51:40;12.50;99.90
25937;DHT22;13733;51.178;4.450;2023-11-19T07:54:07;12.60;99.90
25937;DHT22;13733;51.178;4.450;2023-11-19T07:56:35;12.40;99.90
25937;DHT22;13733;51.178;4.450;2023-11-19T07:59:02;12.50;99.90
25937;DHT22;13733;51.178;4.450;2023-11-19T08:01:28;12.50;99.90
25937;DHT22;13733;51.178;4.450;2023-11-19T08:03:54;12.50;99.90
25937;DHT22;13733;51.178;4.450;2023-11-19T08:06:20;12.50;99.90
25937;DHT22;13733;51.178;4.450;2023-11-19T08:08:46;12.60;99.40
25937;DHT22;13733;51.178;4.450;2023-11-19T08:11:13;12.60;99.40
25937;DHT22;13733;51.178;4.450;2023-11-19T08:13:39;12.50;99.90
25937;DHT22;13733;51.178;4.450;2023-11-19T08:16:05;12.70;98.60
25937;DHT22;13733;51.178;4.450;2023-11-19T08:18:31;12.70;98.20
25937;DHT22;13733;51.178;4.450;2023-11-19T08:20:57;12.70;97.90
25937;DHT22;13733;51.178;4.450;2023-11-19T08:23:24;12.70;98.40
25937;DHT22;13733;51.178;4.450;2023-11-19T08:25:51;12.70;97.50
25937;DHT22;13733;51.178;4.450;2023-11-19T08:28:18;12.80;97.20
25937;DHT22;13733;51.178;4.450;2023-11-19T08:30:44;12.80;96.10
25937;DHT22;13733;51.178;4.450;2023-11-19T08:33:10;12.80;96.80
25937;DHT22;13733;51.178;4.450;2023-11-19T08:35:35;12.80;97.70
25937;DHT22;13733;51.178;4.450;2023-11-19T08:38:02;12.70;97.70
25937;DHT22;13733;51.178;4.450;2023-11-19T08:40:28;12.60;98.90
25937;DHT22;13733;51.178;4.450;2023-11-19T08:42:56;12.70;99.40
25937;DHT22;13733;51.178;4.450;2023-11-19T08:45:22;12.80;98.10
25937;DHT22;13733;51.178;4.450;2023-11-19T08:47:48;12.90;97.10
25937;DHT22;13733;51.178;4.450;2023-11-19T08:50:14;13.00;96.50
25937;DHT22;13733;51.178;4.450;2023-11-19T08:52:40;13.00;95.80
25937;DHT22;13733;51.178;4.450;2023-11-19T08:55:06;13.00;96.60
25937;DHT22;13733;51.178;4.450;2023-11-19T08:57:32;13.00;96.10
25937;DHT22;13733;51.178;4.450;2023-11-19T08:59:58;13.00;95.60
25937;DHT22;13733;51.178;4.450;2023-11-19T09:02:24;13.10;94.80
25937;DHT22;13733;51.178;4.450;2023-11-19T09:04:50;12.90;96.80
25937;DHT22;13733;51.178;4.450;2023-11-19T09:07:17;13.00;96.10
25937;DHT22;13733;51.178;4.450;2023-11-19T09:09:44;12.90;96.50
25937;DHT22;13733;51.178;4.450;2023-11-19T09:12:10;12.90;97.00
25937;DHT22;13733;51.178;4.450;2023-11-19T09:14:35;13.10;95.90
25937;DHT22;13733;51.178;4.450;2023-11-19T09:17:01;13.20;94.60
25937;DHT22;13733;51.178;4.450;2023-11-19T09:19:27;13.20;94.90
25937;DHT22;13733;51.178;4.450;2023-11-19T09:21:54;13.30;93.00
25937;DHT22;13733;51.178;4.450;2023-11-19T09:24:20;13.30;92.40
25937;DHT22;13733;51.178;4.450;2023-11-19T09:26:46;13.40;92.30
25937;DHT22;13733;51.178;4.450;2023-11-19T09:29:12;13.20;94.40
25937;DHT22;13733;51.178;4.450;2023-11-19T09:31:40;13.30;94.40
25937;DHT22;13733;51.178;4.450;2023-11-19T09:34:06;13.30;93.50
25937;DHT22;13733;51.178;4.450;2023-11-19T09:36:31;13.30;94.00
25937;DHT22;13733;51.178;4.450;2023-11-19T09:38:57;13.30;94.10
25937;DHT22;13733;51.178;4.450;2023-11-19T09:41:26;13.40;93.90
25937;DHT22;13733;51.178;4.450;2023-11-19T09:43:53;13.50;92.70
25937;DHT22;13733;51.178;4.450;2023-11-19T09:46:19;13.60;91.60
25937;DHT22;13733;51.178;4.450;2023-11-19T09:48:46;13.70;87.70
25937;DHT22;13733;51.178;4.450;2023-11-19T09:51:13;13.70;83.70
25937;DHT22;13733;51.178;4.450;2023-11-19T09:53:39;13.60;86.40
25937;DHT22;13733;51.178;4.450;2023-11-19T09:56:06;13.60;88.90
25937;DHT22;13733;51.178;4.450;2023-11-19T09:58:33;13.60;86.70
25937;DHT22;13733;51.178;4.450;2023-11-19T10:01:00;13.70;87.10
25937;DHT22;13733;51.178;4.450;2023-11-19T10:03:35;13.80;82.80
25937;DHT22;13733;51.178;4.450;2023-11-19T10:06:29;13.90;83.30
25937;DHT22;13733;51.178;4.450;2023-11-19T10:08:55;13.90;82.10
25937;DHT22;13733;51.178;4.450;2023-11-19T10:11:21;14.00;81.30
25937;DHT22;13733;51.178;4.450;2023-11-19T10:13:46;14.00;80.40
25937;DHT22;13733;51.178;4.450;2023-11-19T10:16:14;14.10;78.10
25937;DHT22;13733;51.178;4.450;2023-11-19T10:18:49;14.50;69.10
25937;DHT22;13733;51.178;4.450;2023-11-19T10:21:19;14.60;58.80
25937;DHT22;13733;51.178;4.450;2023-11-19T10:23:49;14.70;54.50
25937;DHT22;13733;51.178;4.450;2023-11-19T10:26:20;14.90;53.10
25937;DHT22;13733;51.178;4.450;2023-11-19T10:28:47;14.90;50.80
25937;DHT22;13733;51.178;4.450;2023-11-19T10:31:14;14.70;55.90
25937;DHT22;13733;51.178;4.450;2023-11-19T10:33:40;14.50;66.20
25937;DHT22;13733;51.178;4.450;2023-11-19T10:36:07;14.40;73.70
25937;DHT22;13733;51.178;4.450;2023-11-19T10:38:33;14.10;89.60
25937;DHT22;13733;51.178;4.450;2023-11-19T10:40:59;13.80;93.60
25937;DHT22;13733;51.178;4.450;2023-11-19T10:43:25;13.80;94.80
25937;DHT22;13733;51.178;4.450;2023-11-19T10:45:51;13.90;94.70
25937;DHT22;13733;51.178;4.450;2023-11-19T10:48:18;13.70;96.00
25937;DHT22;13733;51.178;4.450;2023-11-19T10:50:46;13.70;96.20
25937;DHT22;13733;51.178;4.450;2023-11-19T10:53:12;13.80;94.40
25937;DHT22;13733;51.178;4.450;2023-11-19T10:55:47;14.20;89.90
25937;DHT22;13733;51.178;4.450;2023-11-19T10:58:15;14.60;78.80
25937;DHT22;13733;51.178;4.450;2023-11-19T11:00:46;15.00;71.60
25937;DHT22;13733;51.178;4.450;2023-11-19T11:03:21;15.30;59.20
25937;DHT22;13733;51.178;4.450;2023-11-19T11:05:52;15.30;55.20
25937;DHT22;13733;51.178;4.450;2023-11-19T11:08:20;15.10;58.90
25937;DHT22;13733;51.178;4.450;2023-11-19T11:10:55;14.80;65.20
25937;DHT22;13733;51.178;4.450;2023-11-19T11:13:24;14.40;72.90
25937;DHT22;13733;51.178;4.450;2023-11-19T11:15:51;14.30;79.50
25937;DHT22;13733;51.178;4.450;2023-11-19T11:18:17;14.30;75.30
25937;DHT22;13733;51.178;4.450;2023-11-19T11:20:47;14.30;78.40
25937;DHT22;13733;51.178;4.450;2023-11-19T11:35:15;15.80;38.20
25937;DHT22;13733;51.178;4.450;2023-11-19T11:39:50;16.90;1.00
25937;DHT22;13733;51.178;4.450;2023-11-19T11:45:07;16.90;1.00
25937;DHT22;13733;51.178;4.450;2023-11-19T11:50:18;18.30;1.00
25937;DHT22;13733;51.178;4.450;2023-11-19T11:57:51;17.60;1.00
25937;DHT22;13733;51.178;4.450;2023-11-19T12:03:02;16.60;1.00
25937;DHT22;13733;51.178;4.450;2023-11-19T12:05:28;15.90;1.00
25937;DHT22;13733;51.178;4.450;2023-11-19T12:08:00;15.70;3.00
25937;DHT22;13733;51.178;4.450;2023-11-19T12:10:29;15.10;53.80
25937;DHT22;13733;51.178;4.450;2023-11-19T12:13:00;14.60;77.30
25937;DHT22;13733;51.178;4.450;2023-11-19T12:15:28;14.30;87.80
25937;DHT22;13733;51.178;4.450;2023-11-19T12:17:54;14.10;92.70
25937;DHT22;13733;51.178;4.450;2023-11-19T12:20:23;13.70;97.50
25937;DHT22;13733;51.178;4.450;2023-11-19T12:22:49;13.40;99.90
25937;DHT22;13733;51.178;4.450;2023-11-19T12:25:17;13.30;99.90
25937;DHT22;13733;51.178;4.450;2023-11-19T12:27:48;13.10;99.90
25937;DHT22;13733;51.178;4.450;2023-11-19T12:30:28;13.20;99.90
25937;DHT22;13733;51.178;4.450;2023-11-19T12:32:56;13.10;99.90
25937;DHT22;13733;51.178;4.450;2023-11-19T12:35:23;13.20;99.90
25937;DHT22;13733;51.178;4.450;2023-11-19T12:37:50;13.00;99.90
25937;DHT22;13733;51.178;4.450;2023-11-19T12:40:18;12.80;99.90
25937;DHT22;13733;51.178;4.450;2023-11-19T12:42:48;12.80;99.90
25937;DHT22;13733;51.178;4.450;2023-11-19T12:45:14;12.90;99.90
25937;DHT22;13733;51.178;4.450;2023-11-19T12:47:42;12.70;99.90
25937;DHT22;13733;51.178;4.450;2023-11-19T12:50:09;13.30;99.90
25937;DHT22;13733;51.178;4.450;2023-11-19T12:52:36;14.10;99.90
25937;DHT22;13733;51.178;4.450;2023-11-19T12:55:04;14.90;99.90
25937;DHT22;13733;51.178;4.450;2023-11-19T12:57:38;15.60;90.10
25937;DHT22;13733;51.178;4.450;2023-11-19T13:00:05;15.40;82.50
25937;DHT22;13733;51.178;4.450;2023-11-19T13:02:55;15.20;90.70
25937;DHT22;13733;51.178;4.450;2023-11-19T13:05:29;16.10;74.10
25937;DHT22;13733;51.178;4.450;2023-11-19T13:08:06;16.40;45.10
25937;DHT22;13733;51.178;4.450;2023-11-19T13:10:33;15.70;58.20
25937;DHT22;13733;51.178;4.450;2023-11-19T13:15:26;15.00;80.00
25937;DHT22;13733;51.178;4.450;2023-11-19T13:17:52;14.70;79.40
25937;DHT22;13733;51.178;4.450;2023-11-19T13:20:18;14.70;85.30
25937;DHT22;13733;51.178;4.450;2023-11-19T13:23:02;14.40;91.10
25937;DHT22;13733;51.178;4.450;2023-11-19T13:25:28;13.90;96.20
25937;DHT22;13733;51.178;4.450;2023-11-19T13:27:56;13.80;97.30
25937;DHT22;13733;51.178;4.450;2023-11-19T13:30:22;13.70;97.80
25937;DHT22;13733;51.178;4.450;2023-11-19T13:32:49;14.00;99.90
25937;DHT22;13733;51.178;4.450;2023-11-19T13:35:16;14.50;95.90
25937;DHT22;13733;51.178;4.450;2023-11-19T13:37:43;15.00;90.60
25937;DHT22;13733;51.178;4.450;2023-11-19T13:40:10;15.60;81.80
25937;DHT22;13733;51.178;4.450;2023-11-19T13:42:42;16.20;49.60
25937;DHT22;13733;51.178;4.450;2023-11-19T13:45:12;16.30;50.60
25937;DHT22;13733;51.178;4.450;2023-11-19T13:47:43;16.60;36.90
25937;DHT22;13733;51.178;4.450;2023-11-19T13:50:09;16.30;40.50
25937;DHT22;13733;51.178;4.450;2023-11-19T13:52:36;15.80;55.70
25937;DHT22;13733;51.178;4.450;2023-11-19T13:55:08;15.50;61.30
25937;DHT22;13733;51.178;4.450;2023-11-19T13:57:35;15.70;58.00
25937;DHT22;13733;51.178;4.450;2023-11-19T14:00:08;15.40;58.70
25937;DHT22;13733;51.178;4.450;2023-11-19T14:02:46;15.10;71.10
25937;DHT22;13733;51.178;4.450;2023-11-19T14:05:13;15.00;69.00
25937;DHT22;13733;51.178;4.450;2023-11-19T14:07:40;14.70;77.40
25937;DHT22;13733;51.178;4.450;2023-11-19T14:10:07;14.30;90.10
25937;DHT22;13733;51.178;4.450;2023-11-19T14:12:42;14.30;91.90
25937;DHT22;13733;51.178;4.450;2023-11-19T14:15:09;14.40;92.60
25937;DHT22;13733;51.178;4.450;2023-11-19T14:17:38;14.40;91.40
25937;DHT22;13733;51.178;4.450;2023-11-19T14:20:04;14.30;90.30
25937;DHT22;13733;51.178;4.450;2023-11-19T14:22:42;14.20;90.80
25937;DHT22;13733;51.178;4.450;2023-11-19T14:25:11;14.00;92.20
25937;DHT22;13733;51.178;4.450;2023-11-19T14:27:38;14.00;93.30
25937;DHT22;13733;51.178;4.450;2023-11-19T14:30:08;13.80;95.90
25937;DHT22;13733;51.178;4.450;2023-11-19T14:32:37;13.70;97.50
25937;DHT22;13733;51.178;4.450;2023-11-19T14:35:04;13.50;99.90
25937;DHT22;13733;51.178;4.450;2023-11-19T14:37:30;13.40;99.90
25937;DHT22;13733;51.178;4.450;2023-11-19T14:39:57;13.40;99.90
25937;DHT22;13733;51.178;4.450;2023-11-19T14:42:23;13.20;99.90
25937;DHT22;13733;51.178;4.450;2023-11-19T14:44:51;13.20;99.90
25937;DHT22;13733;51.178;4.450;2023-11-19T14:47:21;13.20;99.90
25937;DHT22;13733;51.178;4.450;2023-11-19T14:49:47;13.20;99.90
25937;DHT22;13733;51.178;4.450;2023-11-19T14:52:13;13.30;99.90
25937;DHT22;13733;51.178;4.450;2023-11-19T14:54:39;13.30;99.90
25937;DHT22;13733;51.178;4.450;2023-11-19T14:57:06;13.30;99.90
25937;DHT22;13733;51.178;4.450;2023-11-19T14:59:34;13.20;99.90
25937;DHT22;13733;51.178;4.450;2023-11-19T15:02:00;13.10;99.90
25937;DHT22;13733;51.178;4.450;2023-11-19T15:04:29;13.10;99.90
25937;DHT22;13733;51.178;4.450;2023-11-19T15:06:59;13.00;99.90
25937;DHT22;13733;51.178;4.450;2023-11-19T15:09:25;13.00;99.90
25937;DHT22;13733;51.178;4.450;2023-11-19T15:11:54;13.10;99.90
25937;DHT22;13733;51.178;4.450;2023-11-19T15:14:20;13.00;99.90
25937;DHT22;13733;51.178;4.450;2023-11-19T15:16:46;13.10;99.90
25937;DHT22;13733;51.178;4.450;2023-11-19T15:19:13;13.00;99.90
25937;DHT22;13733;51.178;4.450;2023-11-19T15:21:40;13.00;99.90
25937;DHT22;13733;51.178;4.450;2023-11-19T15:24:06;12.90;99.90
25937;DHT22;13733;51.178;4.450;2023-11-19T15:26:34;12.90;99.90
25937;DHT22;13733;51.178;4.450;2023-11-19T15:29:01;12.80;99.90
25937;DHT22;13733;51.178;4.450;2023-11-19T15:31:28;12.80;99.90
25937;DHT22;13733;51.178;4.450;2023-11-19T15:33:54;12.90;99.90
25937;DHT22;13733;51.178;4.450;2023-11-19T15:36:20;12.90;99.90
25937;DHT22;13733;51.178;4.450;2023-11-19T15:38:46;13.00;99.90
25937;DHT22;13733;51.178;4.450;2023-11-19T15:41:12;12.90;99.90
25937;DHT22;13733;51.178;4.450;2023-11-19T15:43:38;12.80;99.90
25937;DHT22;13733;51.178;4.450;2023-11-19T15:46:08;12.80;99.90
25937;DHT22;13733;51.178;4.450;2023-11-19T15:48:35;12.80;99.90
25937;DHT22;13733;51.178;4.450;2023-11-19T15:51:00;12.90;99.30
25937;DHT22;13733;51.178;4.450;2023-11-19T15:53:28;12.90;99.10
25937;DHT22;13733;51.178;4.450;2023-11-19T15:55:53;12.80;99.90
25937;DHT22;13733;51.178;4.450;2023-11-19T15:58:20;12.80;99.90
25937;DHT22;13733;51.178;4.450;2023-11-19T16:00:48;12.80;99.90
25937;DHT22;13733;51.178;4.450;2023-11-19T16:03:14;12.80;99.90